Time;durP1;ratioP1;P1;durP2;ratioP2;P2;SDS_P1;SDS_P2;PMS_P1;PMS_P2;Temp;Humidity;BMP_temperature;BMP_pressure;BME280_temperature;BME280_humidity;BME280_pressure;Samples;Min_cycle;Max_cycle;Signal;HPM_P1;HPM_P2
2023/01/16 00:00:42;;;;;;;;;0.00;0.00;;;;;8.98;49.87;99837.19;5039186;28;45600;-74
2023/01/16 00:03:08;;;;;;;;;0.00;0.00;;;;;8.85;49.22;99800.41;5041207;28;46025;-72
2023/01/16 00:05:33;;;;;;;;;0.00;0.00;;;;;9.02;49.30;99823.41;5042488;28;45415;-74
2023/01/16 00:07:59;;;;;;;;;0.00;0.00;;;;;9.01;48.75;99806.00;5041997;28;45416;-71
2023/01/16 00:10:25;;;;;;;;;0.75;0.00;;;;;9.06;49.30;99794.84;5036259;28;45400;-74
2023/01/16 00:12:50;;;;;;;;;0.00;0.00;;;;;9.03;49.78;99802.59;5042085;28;45426;-71
2023/01/16 00:15:16;;;;;;;;;0.00;0.00;;;;;9.08;49.04;99774.06;5035928;28;45404;-74
2023/01/16 00:17:41;;;;;;;;;0.00;0.00;;;;;9.06;49.46;99767.94;5050204;28;45466;-74
2023/01/16 00:20:08;;;;;;;;;0.00;0.00;;;;;8.94;48.70;99738.13;5051178;28;45404;-72
2023/01/16 00:22:33;;;;;;;;;0.00;0.00;;;;;9.11;49.93;99758.47;5052758;28;45494;-74
2023/01/16 00:24:59;;;;;;;;;1.00;0.00;;;;;9.02;49.87;99743.53;5047038;28;45475;-69
2023/01/16 00:27:24;;;;;;;;;0.00;0.00;;;;;9.14;50.04;99742.91;5041482;28;45550;-73
2023/01/16 00:29:50;;;;;;;;;0.00;0.00;;;;;9.10;50.29;99747.19;5042332;28;45522;-74
2023/01/16 00:32:15;;;;;;;;;0.00;0.00;;;;;9.13;50.43;99760.28;5034998;28;46240;-74
2023/01/16 00:34:41;;;;;;;;;0.00;0.00;;;;;8.78;50.62;99712.56;5040401;28;45664;-73
2023/01/16 00:37:06;;;;;;;;;0.00;0.00;;;;;9.13;50.73;99756.78;5042715;28;45609;-73
2023/01/16 00:39:32;;;;;;;;;0.00;0.00;;;;;9.04;50.74;99757.47;5039320;28;45639;-68
2023/01/16 00:41:58;;;;;;;;;1.00;0.00;;;;;8.96;51.24;99726.00;5038661;28;46044;-72
2023/01/16 00:44:24;;;;;;;;;0.00;0.00;;;;;9.12;51.08;99715.94;5040417;28;45430;-73
2023/01/16 00:46:49;;;;;;;;;0.00;0.00;;;;;9.29;51.75;99726.72;5040048;28;45500;-73
2023/01/16 00:49:15;;;;;;;;;1.00;0.00;;;;;9.29;53.36;99717.22;5024307;28;45590;-74
2023/01/16 00:51:42;;;;;;;;;0.00;0.00;;;;;9.31;53.30;99733.75;5039753;28;46044;-73
2023/01/16 00:54:07;;;;;;;;;0.25;0.00;;;;;9.19;54.51;99735.19;5036889;28;45446;-73
2023/01/16 00:56:33;;;;;;;;;0.00;0.00;;;;;9.19;53.79;99715.25;5040249;28;45332;-74
2023/01/16 00:58:58;;;;;;;;;0.00;0.00;;;;;9.13;55.08;99702.97;5044378;28;45615;-73
2023/01/16 01:01:24;;;;;;;;;0.00;0.00;;;;;9.01;56.06;99670.53;5040360;28;45430;-73
2023/01/16 01:03:49;;;;;;;;;0.00;0.00;;;;;9.02;55.45;99661.88;5039537;28;45890;-71
2023/01/16 01:06:15;;;;;;;;;0.00;0.00;;;;;9.00;56.14;99621.91;5034739;28;45259;-73
2023/01/16 01:08:40;;;;;;;;;0.00;0.00;;;;;9.05;55.45;99610.75;5042490;28;45351;-73
2023/01/16 01:11:12;;;;;;;;;0.00;0.00;;;;;8.94;56.57;99601.81;5040738;28;45916;-73
2023/01/16 01:13:38;;;;;;;;;0.00;0.00;;;;;8.84;56.41;99566.00;5034475;28;45487;-72
2023/01/16 01:16:04;;;;;;;;;0.00;0.00;;;;;8.69;56.45;99520.53;5044081;28;45518;-72
2023/01/16 01:18:30;;;;;;;;;0.00;0.00;;;;;8.79;57.58;99558.06;5044486;28;45438;-68
2023/01/16 01:20:56;;;;;;;;;0.75;0.00;;;;;8.75;57.39;99549.34;5044889;28;46173;-73
2023/01/16 01:23:22;;;;;;;;;0.00;0.00;;;;;8.76;57.65;99513.75;5040216;28;45456;-70
2023/01/16 01:25:48;;;;;;;;;0.00;0.00;;;;;8.80;58.55;99531.19;5041974;28;45568;-73
2023/01/16 01:28:15;;;;;;;;;0.00;0.00;;;;;8.74;58.62;99511.09;5037038;28;45557;-72
2023/01/16 01:30:40;;;;;;;;;0.00;0.00;;;;;8.70;58.45;99500.59;5043677;28;45474;-72
2023/01/16 01:33:06;;;;;;;;;0.00;0.00;;;;;8.62;59.72;99494.38;5046444;28;45516;-73
2023/01/16 01:35:32;;;;;;;;;0.00;0.00;;;;;8.59;59.70;99489.09;5041478;28;45575;-72
2023/01/16 01:37:58;;;;;;;;;0.00;0.00;;;;;8.58;58.89;99464.78;5038773;28;45452;-72
2023/01/16 01:40:24;;;;;;;;;0.00;0.00;;;;;8.48;59.15;99452.44;5042368;28;45375;-72
2023/01/16 01:42:53;;;;;;;;;0.00;0.00;;;;;8.47;59.83;99479.28;5043940;28;45651;-72
2023/01/16 01:45:27;;;;;;;;;0.00;0.00;;;;;8.40;59.28;99457.44;5042195;28;45379;-73
2023/01/16 01:48:01;;;;;;;;;0.00;0.00;;;;;8.52;59.49;99488.09;5041714;28;45513;-71
2023/01/16 01:50:52;;;;;;;;;0.00;0.00;;;;;8.49;59.25;99475.00;5041134;28;45503;-74
2023/01/16 01:53:43;;;;;;;;;0.00;0.00;;;;;8.49;59.44;99470.66;5041879;28;45535;-74
2023/01/16 01:56:46;;;;;;;;;0.00;0.00;;;;;8.46;59.61;99483.63;5043373;28;45341;-73
2023/01/16 01:59:20;;;;;;;;;0.00;0.00;;;;;8.50;59.10;99456.81;5036576;28;45482;-73
2023/01/16 02:01:46;;;;;;;;;0.00;0.00;;;;;8.58;59.19;99466.53;5024942;28;46522;-74
2023/01/16 02:04:21;;;;;;;;;0.00;0.00;;;;;8.55;58.91;99483.84;5041950;28;45522;-71
2023/01/16 02:06:55;;;;;;;;;0.00;0.00;;;;;8.56;58.59;99438.72;5042183;28;45514;-73
2023/01/16 02:09:22;;;;;;;;;0.00;0.00;;;;;8.70;58.31;99425.09;5037173;28;45469;-74
2023/01/16 02:11:51;;;;;;;;;0.00;0.00;;;;;8.69;58.62;99439.81;5043097;28;46110;-73
2023/01/16 02:14:18;;;;;;;;;0.00;0.00;;;;;8.72;58.57;99413.00;5041150;28;45528;-73
2023/01/16 02:19:46;;;;;;;;;0.00;0.00;;;;;8.75;58.41;99418.25;5047990;28;45481;-74
2023/01/16 02:22:36;;;;;;;;;0.00;0.00;;;;;8.78;58.15;99407.91;5049431;28;45487;-74
2023/01/16 02:25:02;;;;;;;;;0.00;0.00;;;;;8.75;58.19;99415.63;5052041;28;45496;-71
2023/01/16 02:27:45;;;;;;;;;0.00;0.00;;;;;8.80;58.00;99419.22;5048172;28;45390;-74
2023/01/16 02:30:20;;;;;;;;;0.00;0.00;;;;;8.86;57.95;99402.84;5049500;28;45478;-73
2023/01/16 02:32:57;;;;;;;;;0.00;0.00;;;;;8.89;57.96;99405.47;5046567;28;45514;-73
2023/01/16 02:35:36;;;;;;;;;0.00;0.00;;;;;8.93;58.03;99376.94;5047694;28;45451;-73
2023/01/16 02:38:16;;;;;;;;;0.00;0.00;;;;;8.92;57.79;99385.59;5047333;28;45648;-74
2023/01/16 02:41:24;;;;;;;;;0.00;0.00;;;;;8.91;57.82;99352.59;5050133;28;45485;-74
2023/01/16 02:44:08;;;;;;;;;0.00;0.00;;;;;9.00;57.41;99361.41;5045145;28;46105;-74
2023/01/16 02:47:02;;;;;;;;;0.00;0.00;;;;;9.04;57.27;99335.44;5048244;28;45498;-73
2023/01/16 02:49:40;;;;;;;;;0.00;0.00;;;;;9.07;57.33;99387.59;5048321;28;45992;-73
2023/01/16 02:52:32;;;;;;;;;0.00;0.00;;;;;9.04;56.97;99340.63;5050513;28;45572;-74
2023/01/16 02:55:11;;;;;;;;;0.00;0.00;;;;;9.18;57.18;99342.59;5050870;28;46396;-73
2023/01/16 02:57:43;;;;;;;;;0.00;0.00;;;;;9.24;56.74;99346.16;5046341;28;45471;-73
2023/01/16 03:00:10;;;;;;;;;0.00;0.00;;;;;9.34;56.62;99342.84;5046955;28;45485;-72
2023/01/16 03:02:36;;;;;;;;;0.00;0.00;;;;;9.44;56.39;99348.22;5048952;28;45538;-73
2023/01/16 03:05:02;;;;;;;;;0.00;0.00;;;;;9.44;56.71;99316.94;5051946;28;46027;-74
2023/01/16 03:07:46;;;;;;;;;0.00;0.00;;;;;9.45;56.66;99305.66;5042825;28;45472;-73
2023/01/16 03:10:29;;;;;;;;;0.00;0.00;;;;;9.47;56.83;99330.00;5043430;28;45274;-74
2023/01/16 03:13:15;;;;;;;;;0.00;0.00;;;;;9.42;57.31;99329.94;5048799;28;45392;-74
2023/01/16 03:16:18;;;;;;;;;0.00;0.00;;;;;9.46;57.05;99352.59;5052470;28;45940;-74
2023/01/16 03:19:13;;;;;;;;;0.00;0.00;;;;;9.50;57.36;99327.44;5055567;28;45513;-73
2023/01/16 03:22:19;;;;;;;;;0.00;0.00;;;;;9.49;57.66;99338.72;5057473;28;45458;-73
2023/01/16 03:25:09;;;;;;;;;0.00;0.00;;;;;9.48;58.69;99324.81;5058085;28;45307;-74
2023/01/16 03:28:06;;;;;;;;;0.00;0.00;;;;;9.31;58.47;99313.25;5057843;28;46109;-69
2023/01/16 03:30:37;;;;;;;;;0.00;0.00;;;;;9.44;59.16;99343.00;5051642;28;45463;-74
2023/01/16 03:33:10;;;;;;;;;0.00;0.00;;;;;9.50;59.29;99354.41;5037883;28;45835;-75
2023/01/16 03:35:54;;;;;;;;;0.00;0.00;;;;;9.55;58.72;99364.91;5038790;28;45582;-73
2023/01/16 03:38:24;;;;;;;;;0.00;0.00;;;;;9.55;59.46;99367.53;5057588;28;46251;-74
2023/01/16 03:40:51;;;;;;;;;1.00;0.75;;;;;9.59;60.94;99360.59;5056662;28;45212;-74
2023/01/16 03:43:23;;;;;;;;;0.00;0.00;;;;;9.58;60.34;99362.34;5056814;28;45478;-75
2023/01/16 03:46:07;;;;;;;;;0.00;0.00;;;;;9.56;60.69;99354.47;5057767;28;45384;-75
2023/01/16 03:48:52;;;;;;;;;1.50;0.25;;;;;9.69;61.80;99371.19;5057685;28;45474;-75
2023/01/16 03:51:35;;;;;;;;;0.00;0.00;;;;;9.45;62.09;99297.81;5057445;28;45338;-75
2023/01/16 03:54:03;;;;;;;;;3.00;1.00;;;;;9.40;62.62;99265.63;5056866;28;45303;-74
2023/01/16 03:56:40;;;;;;;;;1.50;1.50;;;;;9.70;62.91;99286.00;5045574;28;45867;-75
2023/01/16 03:59:07;;;;;;;;;2.25;1.00;;;;;9.67;63.30;99265.09;5057537;28;46253;-75
2023/01/16 04:01:53;;;;;;;;;0.00;0.00;;;;;9.59;63.24;99259.81;5057181;28;45307;-75
2023/01/16 04:04:32;;;;;;;;;1.00;1.00;;;;;9.15;63.78;99200.09;5057471;28;45331;-75
2023/01/16 04:07:12;;;;;;;;;0.00;0.00;;;;;9.34;63.80;99253.38;5057570;28;45454;-75
2023/01/16 04:09:44;;;;;;;;;1.00;1.00;;;;;9.28;63.36;99248.94;5057499;28;46032;-69
2023/01/16 04:12:14;;;;;;;;;0.75;0.75;;;;;9.26;63.35;99270.63;5057161;28;45466;-74
2023/01/16 04:14:41;;;;;;;;;3.00;3.00;;;;;9.14;64.01;99292.16;5056710;28;45474;-75
2023/01/16 04:17:08;;;;;;;;;0.25;0.25;;;;;9.03;64.52;99299.81;5037230;28;45311;-75
2023/01/16 04:19:36;;;;;;;;;2.00;1.00;;;;;9.05;64.62;99307.63;5056078;28;45517;-75
2023/01/16 04:22:07;;;;;;;;;1.00;0.00;;;;;8.95;65.42;99323.13;5056261;28;45395;-75
2023/01/16 04:24:35;;;;;;;;;0.25;0.25;;;;;8.95;65.19;99348.28;5056298;28;45501;-72
2023/01/16 04:27:01;;;;;;;;;1.00;1.00;;;;;8.95;67.00;99356.09;5055461;28;45564;-75
2023/01/16 04:29:26;;;;;;;;;0.00;0.00;;;;;8.99;66.33;99359.63;5055779;28;45950;-75
2023/01/16 04:31:52;;;;;;;;;0.00;0.00;;;;;8.76;67.48;99301.09;5056753;28;45443;-75
2023/01/16 04:34:18;;;;;;;;;1.25;0.75;;;;;8.68;66.37;99257.56;5056600;28;45451;-75
2023/01/16 04:36:43;;;;;;;;;1.50;1.00;;;;;9.07;66.53;99316.34;5057221;28;45310;-75
2023/01/16 04:39:09;;;;;;;;;0.00;0.00;;;;;9.11;66.98;99325.97;5056758;28;46183;-68
2023/01/16 04:41:38;;;;;;;;;1.00;0.75;;;;;9.11;67.40;99325.97;5056960;28;45445;-75
2023/01/16 04:44:06;;;;;;;;;0.00;0.00;;;;;9.14;66.93;99318.22;5039683;28;45467;-75
2023/01/16 04:46:32;;;;;;;;;0.00;0.00;;;;;9.18;66.93;99298.31;5036897;28;45320;-75
2023/01/16 04:48:57;;;;;;;;;0.00;0.00;;;;;9.14;67.99;99326.03;5035690;28;45488;-75
2023/01/16 04:51:23;;;;;;;;;0.00;0.00;;;;;9.16;67.83;99322.59;5042774;28;45544;-75
2023/01/16 04:53:49;;;;;;;;;0.00;0.00;;;;;9.18;68.33;99298.31;5058034;28;45808;-75
2023/01/16 04:56:14;;;;;;;;;0.00;0.00;;;;;9.22;68.09;99289.69;5039656;28;45412;-73
2023/01/16 04:58:40;;;;;;;;;0.00;0.00;;;;;9.21;68.16;99257.56;5058598;28;46286;-75
2023/01/16 05:01:05;;;;;;;;;0.00;0.00;;;;;9.14;67.63;99256.56;5060108;28;45428;-74
2023/01/16 05:03:31;;;;;;;;;0.00;0.00;;;;;9.11;68.28;99277.38;5060737;28;45560;-75
2023/01/16 05:05:57;;;;;;;;;0.00;0.00;;;;;8.74;69.36;99234.25;5060521;28;45311;-75
2023/01/16 05:08:27;;;;;;;;;0.00;0.00;;;;;8.92;68.93;99289.22;5060255;28;45774;-75
2023/01/16 05:10:54;;;;;;;;;0.00;0.00;;;;;8.63;68.94;99236.66;5060054;28;45430;-75
2023/01/16 05:13:22;;;;;;;;;0.00;0.00;;;;;8.72;68.97;99249.81;5059939;28;45301;-73
2023/01/16 05:15:47;;;;;;;;;0.00;0.00;;;;;8.80;68.98;99286.41;5059204;28;45474;-74
2023/01/16 05:18:13;;;;;;;;;0.00;0.00;;;;;8.78;69.27;99298.53;5058250;28;45897;-74
2023/01/16 05:20:39;;;;;;;;;0.00;0.00;;;;;8.78;69.34;99295.94;5058818;28;45498;-75
2023/01/16 05:23:05;;;;;;;;;0.00;0.00;;;;;8.77;69.82;99296.75;5043342;28;45748;-75
2023/01/16 05:25:31;;;;;;;;;0.00;0.00;;;;;8.79;69.58;99288.97;5038970;28;45479;-75
2023/01/16 05:27:56;;;;;;;;;0.00;0.00;;;;;8.83;70.04;99302.06;5039082;28;45470;-74
2023/01/16 05:30:22;;;;;;;;;0.00;0.00;;;;;8.88;69.81;99299.56;5039521;28;45333;-75
2023/01/16 05:32:47;;;;;;;;;0.00;0.00;;;;;8.91;69.86;99297.91;5039808;28;45178;-73
2023/01/16 05:35:15;;;;;;;;;0.00;0.00;;;;;8.92;70.23;99323.06;5039530;28;45412;-74
2023/01/16 05:37:41;;;;;;;;;1.00;0.00;;;;;8.91;70.58;99344.78;5058746;28;45466;-74
2023/01/16 05:40:10;;;;;;;;;0.00;0.00;;;;;8.89;70.82;99359.50;5058005;28;45426;-74
2023/01/16 05:42:36;;;;;;;;;0.00;0.00;;;;;8.65;70.58;99294.81;5058541;28;45577;-75
2023/01/16 05:45:01;;;;;;;;;0.00;0.00;;;;;8.93;70.85;99285.78;5057254;28;45477;-75
2023/01/16 05:47:27;;;;;;;;;0.00;0.00;;;;;8.99;70.65;99237.22;5020866;28;47778;-75
2023/01/16 05:49:53;;;;;;;;;0.00;0.00;;;;;9.03;70.55;99262.47;5047250;28;45441;-75
2023/01/16 05:52:18;;;;;;;;;0.00;0.00;;;;;9.06;70.72;99275.53;5045991;28;45573;-73
2023/01/16 05:54:44;;;;;;;;;0.00;0.00;;;;;9.02;70.36;99318.03;5055175;28;45566;-73
2023/01/16 05:57:09;;;;;;;;;0.00;0.00;;;;;9.02;70.36;99312.81;5058673;28;46132;-73
2023/01/16 05:59:35;;;;;;;;;0.00;0.00;;;;;9.02;70.37;99334.53;5048475;28;45543;-73
2023/01/16 06:02:00;;;;;;;;;0.00;0.00;;;;;9.04;70.51;99342.38;5038590;28;45540;-74
2023/01/16 06:04:26;;;;;;;;;0.00;0.00;;;;;9.04;70.12;99371.03;5053896;28;45547;-75
2023/01/16 06:06:51;;;;;;;;;0.00;0.00;;;;;9.06;69.72;99356.31;5057923;28;45834;-74
2023/01/16 06:09:17;;;;;;;;;0.00;0.00;;;;;9.09;70.97;99352.03;5048317;28;45467;-74
2023/01/16 06:11:42;;;;;;;;;0.00;0.00;;;;;9.09;70.65;99362.44;5050828;28;45407;-75
2023/01/16 06:14:08;;;;;;;;;0.00;0.00;;;;;9.09;70.69;99369.38;5041983;28;45487;-73
2023/01/16 06:16:34;;;;;;;;;0.00;0.00;;;;;9.11;70.64;99360.75;5053379;28;46167;-74
2023/01/16 06:19:01;;;;;;;;;0.00;0.00;;;;;9.12;70.34;99366.81;5046167;28;45641;-70
2023/01/16 06:21:27;;;;;;;;;0.00;0.00;;;;;9.12;70.58;99364.22;5046272;28;45568;-75
2023/01/16 06:23:52;;;;;;;;;0.00;0.00;;;;;9.11;70.98;99370.25;5037998;28;45518;-74
2023/01/16 06:26:19;;;;;;;;;0.00;0.00;;;;;9.12;70.60;99369.44;5048382;28;45506;-70
2023/01/16 06:28:45;;;;;;;;;0.00;0.00;;;;;9.08;70.20;99357.19;5058076;28;45303;-72
2023/01/16 06:31:11;;;;;;;;;0.00;0.00;;;;;9.03;70.77;99374.47;5057829;28;45414;-74
2023/01/16 06:33:37;;;;;;;;;0.00;0.00;;;;;8.99;70.16;99370.94;5058693;28;45284;-74
2023/01/16 06:36:02;;;;;;;;;0.00;0.00;;;;;9.02;70.59;99373.59;5056888;28;46004;-75
2023/01/16 06:38:28;;;;;;;;;0.00;0.00;;;;;9.03;70.51;99382.28;5041992;28;45474;-73
2023/01/16 06:40:55;;;;;;;;;0.00;0.00;;;;;8.83;71.17;99317.69;5041782;28;45538;-75
2023/01/16 06:43:26;;;;;;;;;0.00;0.00;;;;;8.92;71.18;99379.50;5055891;28;45474;-75
2023/01/16 06:45:52;;;;;;;;;0.00;0.00;;;;;8.91;70.33;99376.03;5057193;28;45950;-73
2023/01/16 06:48:17;;;;;;;;;0.00;0.00;;;;;8.85;70.91;99377.63;5039587;28;45691;-75
2023/01/16 06:50:43;;;;;;;;;0.00;0.00;;;;;8.81;70.89;99391.44;5051668;28;45430;-75
2023/01/16 06:53:09;;;;;;;;;0.00;0.00;;;;;8.82;70.51;99377.59;5040976;28;45342;-74
2023/01/16 06:55:36;;;;;;;;;0.00;0.00;;;;;8.58;70.48;99323.34;5056955;28;45482;-75
2023/01/16 06:58:01;;;;;;;;;0.00;0.00;;;;;8.79;70.16;99373.19;5046665;28;45256;-76
2023/01/16 07:00:27;;;;;;;;;0.00;0.00;;;;;8.74;70.72;99374.84;5037497;28;45317;-74
2023/01/16 07:02:56;;;;;;;;;0.00;0.00;;;;;8.72;70.48;99385.22;5038501;28;45558;-75
2023/01/16 07:05:24;;;;;;;;;0.00;0.00;;;;;8.70;71.00;99393.84;5057964;28;45418;-75
2023/01/16 07:07:50;;;;;;;;;0.00;0.00;;;;;8.67;70.68;99401.59;5055987;28;45704;-75
2023/01/16 07:10:16;;;;;;;;;0.00;0.00;;;;;8.69;70.69;99418.13;5057312;28;45471;-75
2023/01/16 07:12:42;;;;;;;;;0.00;0.00;;;;;8.68;70.70;99409.44;5057494;28;45489;-76
2023/01/16 07:23:28;;;;;;;;;7.25;4.50;;;;;8.67;70.60;99393.78;5056512;28;45423;-75
2023/01/16 07:25:54;;;;;;;;;8.75;6.50;;;;;8.66;71.20;99384.25;5054417;28;45569;-75
2023/01/16 07:28:23;;;;;;;;;11.00;10.50;;;;;8.28;70.74;99298.47;5036516;28;45320;-75
2023/01/16 07:30:50;;;;;;;;;12.75;9.00;;;;;8.66;71.14;99371.22;5048043;28;45426;-68
2023/01/16 07:33:15;;;;;;;;;2.00;2.00;;;;;8.66;71.03;99366.00;5057045;28;45316;-74
2023/01/16 07:35:41;;;;;;;;;4.75;3.50;;;;;8.45;71.13;99343.03;5056243;28;45493;-75
2023/01/16 07:38:06;;;;;;;;;2.00;2.00;;;;;8.63;70.89;99373.75;5056061;28;45516;-75
2023/01/16 07:40:32;;;;;;;;;0.00;0.00;;;;;8.62;70.90;99346.84;5056858;28;45307;-75
2023/01/16 07:42:57;;;;;;;;;0.00;0.00;;;;;8.63;70.94;99371.16;5057629;28;45571;-75
2023/01/16 07:45:23;;;;;;;;;0.00;0.00;;;;;8.63;71.03;99368.53;5056394;28;45565;-74
2023/01/16 07:47:49;;;;;;;;;1.00;1.00;;;;;8.63;70.80;99368.53;5056811;28;45474;-74
2023/01/16 07:50:14;;;;;;;;;0.00;0.00;;;;;8.62;70.88;99361.59;5035096;28;45343;-75
2023/01/16 07:52:41;;;;;;;;;0.00;0.00;;;;;8.55;71.24;99360.59;5042162;28;45377;-75
2023/01/16 07:55:07;;;;;;;;;0.25;0.00;;;;;8.39;71.47;99307.34;5055663;28;47105;-75
2023/01/16 07:57:36;;;;;;;;;0.00;0.00;;;;;8.62;71.30;99333.84;5043005;28;45364;-75
2023/01/16 08:00:03;;;;;;;;;0.00;0.00;;;;;8.58;70.90;99334.63;5036619;28;45467;-74
2023/01/16 08:02:29;;;;;;;;;0.00;0.00;;;;;8.50;71.38;99324.06;5049954;28;45596;-75
2023/01/16 08:04:54;;;;;;;;;0.00;0.00;;;;;8.62;71.72;99339.03;5055551;28;45568;-72
2023/01/16 08:07:20;;;;;;;;;0.00;0.00;;;;;8.62;71.73;99314.75;5054415;28;45490;-71
2023/01/16 08:09:45;;;;;;;;;0.00;0.00;;;;;8.63;71.72;99317.34;5054800;28;45369;-73
2023/01/16 08:12:11;;;;;;;;;0.00;0.00;;;;;8.60;71.54;99316.44;5054091;28;45790;-73
2023/01/16 08:14:36;;;;;;;;;1.00;1.00;;;;;8.52;71.45;99311.97;5054324;28;46038;-75
2023/01/16 08:17:02;;;;;;;;;0.00;0.00;;;;;8.44;71.50;99323.97;5055628;28;45525;-73
2023/01/16 08:19:27;;;;;;;;;0.75;0.75;;;;;8.45;71.19;99340.44;5056532;28;45327;-72
2023/01/16 08:21:53;;;;;;;;;2.00;2.00;;;;;8.22;71.10;99291.41;5056262;28;45471;-74
2023/01/16 08:24:18;;;;;;;;;0.00;0.00;;;;;8.41;70.94;99336.91;5049969;28;46436;-75
2023/01/16 08:26:44;;;;;;;;;0.25;0.00;;;;;8.51;70.95;99353.56;5036590;28;45559;-75
2023/01/16 08:29:10;;;;;;;;;0.50;0.00;;;;;8.26;71.29;99306.25;5040551;28;45261;-76
2023/01/16 08:31:36;;;;;;;;;0.00;0.00;;;;;8.47;70.78;99350.03;5040999;28;45511;-73
2023/01/16 08:34:01;;;;;;;;;0.00;0.00;;;;;8.38;70.23;99331.63;5059756;28;45443;-75
2023/01/16 08:36:27;;;;;;;;;0.00;0.00;;;;;8.49;70.07;99339.66;5056843;28;45332;-73
2023/01/16 08:38:52;;;;;;;;;0.00;0.00;;;;;8.30;69.57;99314.97;5057542;28;45489;-75
2023/01/16 08:52:31;;;;;;;;;0.00;0.00;;;;;8.45;70.73;99346.50;5044336;28;45558;-69
2023/01/16 08:54:57;;;;;;;;;0.00;0.00;;;;;8.44;71.00;99349.13;5058355;28;45852;-72
2023/01/16 08:57:24;;;;;;;;;0.75;0.00;;;;;8.43;71.23;99357.75;5059394;28;45889;-74
2023/01/16 08:59:49;;;;;;;;;1.00;1.00;;;;;8.22;71.21;99346.06;5058477;28;45494;-68
2023/01/16 09:02:15;;;;;;;;;1.00;0.50;;;;;8.44;70.93;99364.72;5058780;28;45580;-69
2023/01/16 09:04:41;;;;;;;;;2.25;2.00;;;;;8.32;71.30;99341.91;5058686;28;45488;-75
2023/01/16 09:07:07;;;;;;;;;0.00;0.00;;;;;8.20;71.29;99326.94;5058890;28;45953;-76
2023/01/16 09:09:32;;;;;;;;;0.00;0.00;;;;;8.44;71.09;99367.34;5058238;28;45552;-70
2023/01/16 09:14:41;;;;;;;;;1.00;0.00;;;;;8.49;71.81;99374.34;5057332;28;45465;-74
2023/01/16 09:17:08;;;;;;;;;0.00;0.00;;;;;8.52;72.11;99368.34;5056562;28;45442;-73
2023/01/16 09:19:34;;;;;;;;;0.00;0.00;;;;;8.58;72.07;99352.84;5053440;28;45890;-74
2023/01/16 09:22:00;;;;;;;;;0.00;0.00;;;;;8.44;71.74;99317.88;5054371;28;45537;-73
2023/01/16 09:24:26;;;;;;;;;0.00;0.00;;;;;8.64;71.97;99362.50;5056177;28;45446;-73
2023/01/16 09:26:54;;;;;;;;;0.00;0.00;;;;;8.66;71.82;99351.25;5056234;28;45557;-70
2023/01/16 09:29:22;;;;;;;;;0.00;0.00;;;;;8.65;72.07;99359.91;5055893;28;45573;-73
2023/01/16 09:31:48;;;;;;;;;0.00;0.00;;;;;8.69;72.45;99355.63;5052760;28;45368;-70
2023/01/16 09:34:14;;;;;;;;;0.00;0.00;;;;;8.65;72.60;99352.09;5057829;28;46118;-71
2023/01/16 09:36:44;;;;;;;;;0.00;0.00;;;;;8.56;72.57;99325.91;5056934;28;45232;-74
2023/01/16 09:39:11;;;;;;;;;0.00;0.00;;;;;8.70;72.31;99336.59;5033718;28;45583;-71
2023/01/16 09:44:52;;;;;;;;;0.00;0.00;;;;;8.67;72.51;99349.53;5053786;28;45827;-68
2023/01/16 09:47:23;;;;;;;;;0.00;0.00;;;;;8.64;72.13;99349.50;5051145;28;45434;-73
2023/01/16 09:49:56;;;;;;;;;0.00;0.00;;;;;8.56;72.31;99341.53;5037693;28;45382;-69
2023/01/16 10:00:59;;;;;;;;;0.75;0.00;;;;;8.84;70.23;99361.13;5038778;28;46023;-72
2023/01/16 10:03:25;;;;;;;;;1.75;0.50;;;;;8.88;70.44;99373.34;5039894;28;45391;-71
2023/01/16 10:06:16;;;;;;;;;1.00;0.50;;;;;8.88;70.26;99394.19;5053618;28;45445;-73
2023/01/16 10:09:05;;;;;;;;;2.00;2.00;;;;;8.93;70.46;99389.06;5045852;28;45368;-72
2023/01/16 10:11:40;;;;;;;;;3.00;1.00;;;;;8.95;70.61;99380.44;5058688;28;45585;-74
2023/01/16 10:14:30;;;;;;;;;1.00;1.00;;;;;8.94;70.72;99390.81;5041403;28;45514;-72
2023/01/16 10:17:26;;;;;;;;;3.00;3.00;;;;;8.92;70.93;99406.41;5042103;28;45561;-73
2023/01/16 10:20:16;;;;;;;;;0.00;0.00;;;;;8.94;71.45;99404.72;5039421;28;45326;-73
2023/01/16 10:23:10;;;;;;;;;0.00;0.00;;;;;8.96;71.04;99418.66;5055108;28;45281;-69
2023/01/16 10:25:50;;;;;;;;;2.00;2.00;;;;;9.01;70.90;99399.63;5059244;28;45388;-73
2023/01/16 10:28:37;;;;;;;;;0.50;0.50;;;;;9.04;71.21;99397.06;5059143;28;46125;-74
2023/01/16 10:31:22;;;;;;;;;1.25;1.00;;;;;9.06;71.17;99383.22;5054201;28;45467;-69
2023/01/16 10:33:59;;;;;;;;;2.00;2.00;;;;;8.89;71.71;99369.91;5050710;28;45488;-73
2023/01/16 10:36:31;;;;;;;;;1.00;0.25;;;;;8.93;71.97;99374.31;5059209;28;45477;-72
2023/01/16 10:38:59;;;;;;;;;2.00;1.50;;;;;9.01;72.20;99383.97;5059727;28;46018;-71
2023/01/16 10:50:07;;;;;;;;;2.75;2.00;;;;;8.80;72.69;99350.66;5054494;28;45694;-74
2023/01/16 10:52:33;;;;;;;;;4.00;3.00;;;;;8.98;72.80;99376.13;5059336;28;45601;-73
2023/01/16 10:54:59;;;;;;;;;0.00;0.00;;;;;8.73;72.75;99318.38;5041845;28;45511;-73
2023/01/16 10:57:26;;;;;;;;;0.00;0.00;;;;;8.96;72.31;99356.13;5049656;28;45508;-75
2023/01/16 10:59:56;;;;;;;;;5.25;5.00;;;;;9.01;72.29;99363.16;5060456;28;46129;-74
2023/01/16 11:02:31;;;;;;;;;2.00;2.00;;;;;9.01;72.07;99368.34;5042494;28;45562;-73
2023/01/16 11:04:57;;;;;;;;;2.25;2.00;;;;;9.00;71.66;99353.59;5041615;28;45353;-73
2023/01/16 11:07:26;;;;;;;;;4.25;3.00;;;;;8.73;71.47;99303.66;5048021;28;45505;-74
2023/01/16 11:09:51;;;;;;;;;3.00;3.00;;;;;8.70;71.27;99285.38;5054872;28;45365;-72
2023/01/16 11:18:29;;;;;;;;;3.00;3.00;;;;;8.91;72.37;99303.09;5043286;28;45540;-73
2023/01/16 11:21:00;;;;;;;;;3.75;3.25;;;;;8.86;72.94;99293.47;5046153;28;45510;-73
2023/01/16 11:23:35;;;;;;;;;2.00;1.25;;;;;8.86;72.27;99291.72;5037335;28;45399;-74
2023/01/16 11:26:02;;;;;;;;;4.75;4.00;;;;;8.83;72.67;99291.66;5041895;28;45429;-73
2023/01/16 11:28:30;;;;;;;;;0.00;0.00;;;;;8.82;72.04;99282.09;5057556;28;45378;-73
2023/01/16 11:31:14;;;;;;;;;5.25;4.00;;;;;8.81;72.01;99269.91;5056889;28;46146;-73
2023/01/16 11:34:02;;;;;;;;;28.75;22.75;;;;;8.78;72.14;99288.13;5058753;28;45451;-75
2023/01/16 11:36:32;;;;;;;;;19.25;19.00;;;;;8.78;72.49;99275.09;5048615;28;45442;-73
2023/01/16 11:38:59;;;;;;;;;3.25;2.75;;;;;8.77;72.83;99288.94;5037321;28;45421;-73
2023/01/16 11:41:47;;;;;;;;;8.00;8.00;;;;;8.80;73.14;99290.75;5055485;28;46259;-72
2023/01/16 11:47:05;;;;;;;;;1.50;1.25;;;;;8.82;73.37;99308.16;5047209;28;45460;-75
2023/01/16 11:49:38;;;;;;;;;1.50;1.00;;;;;8.90;73.24;99298.72;5037004;28;45430;-73
2023/01/16 11:52:04;;;;;;;;;2.00;1.00;;;;;8.95;73.15;99293.59;5046348;28;46015;-71
2023/01/16 11:54:33;;;;;;;;;2.00;1.00;;;;;8.99;73.19;99302.34;5049340;28;45758;-74
2023/01/16 11:57:10;;;;;;;;;1.00;1.00;;;;;8.99;73.41;99291.91;5039197;28;45581;-74
2023/01/16 11:59:48;;;;;;;;;4.00;4.00;;;;;8.98;73.20;99300.59;5056566;28;46431;-74
2023/01/16 12:02:35;;;;;;;;;1.50;0.75;;;;;8.99;73.17;99294.53;5055300;28;45503;-73
2023/01/16 12:08:21;;;;;;;;;0.00;0.00;;;;;9.03;73.31;99245.13;5056603;28;45409;-74
2023/01/16 12:11:07;;;;;;;;;0.00;0.00;;;;;9.05;73.31;99234.69;5052438;28;45398;-74
2023/01/16 12:14:20;;;;;;;;;0.00;0.00;;;;;9.07;73.03;99233.91;5036346;28;45594;-75
2023/01/16 12:16:58;;;;;;;;;0.00;0.00;;;;;9.05;72.99;99225.19;5036345;28;45401;-73
2023/01/16 12:19:45;;;;;;;;;1.00;0.00;;;;;9.06;73.05;99233.88;5046498;28;45467;-73
2023/01/16 12:22:38;;;;;;;;;0.50;0.00;;;;;9.08;73.32;99216.53;5039900;28;45325;-73
2023/01/16 12:25:55;;;;;;;;;0.00;0.00;;;;;9.10;73.58;99225.25;5046229;28;46301;-73
2023/01/16 12:28:29;;;;;;;;;0.00;0.00;;;;;9.11;73.57;99219.16;5006131;28;45785;-72
2023/01/16 12:34:21;;;;;;;;;1.00;1.00;;;;;9.17;73.05;99198.41;5040065;28;45396;-73
2023/01/16 12:37:01;;;;;;;;;0.00;0.00;;;;;9.19;73.32;99175.88;5039715;28;46323;-73
2023/01/16 12:39:55;;;;;;;;;0.00;0.00;;;;;9.16;73.73;99186.25;5035405;28;45522;-74
2023/01/16 12:45:36;;;;;;;;;0.00;0.00;;;;;9.19;73.55;99160.25;5055102;28;45553;-75
2023/01/16 12:48:20;;;;;;;;;7.50;5.00;;;;;9.21;73.48;99162.84;5056393;28;46342;-73
2023/01/16 12:51:27;;;;;;;;;1.00;1.00;;;;;9.21;73.42;99148.13;5044956;28;45541;-73
2023/01/16 12:54:20;;;;;;;;;1.25;1.00;;;;;9.26;73.23;99120.38;5050706;28;45589;-74
2023/01/16 12:57:00;;;;;;;;;3.25;2.00;;;;;9.27;73.22;99135.16;5035948;28;45522;-74
2023/01/16 12:59:34;;;;;;;;;1.00;1.00;;;;;9.28;73.79;99149.06;5035603;28;45479;-75
2023/01/16 13:02:09;;;;;;;;;1.25;1.00;;;;;9.32;73.12;99138.69;5035963;28;45379;-74
2023/01/16 13:04:41;;;;;;;;;1.00;1.00;;;;;9.22;73.05;99125.53;5047757;28;45462;-71